sensor_id;sensor_type;location;lat;lon;timestamp;temperature;humidity
31735;DHT22;18313;48.518;9.124;2023-02-26T00:01:29;0.20;99.90
31735;DHT22;18313;48.518;9.124;2023-02-26T00:03:59;0.10;99.90
31735;DHT22;18313;48.518;9.124;2023-02-26T00:06:30;0.10;99.90
31735;DHT22;18313;48.518;9.124;2023-02-26T00:08:58;0.00;99.90
31735;DHT22;18313;48.518;9.124;2023-02-26T00:11:26;0.00;99.90
31735;DHT22;18313;48.518;9.124;2023-02-26T00:13:54;0.00;99.90
31735;DHT22;18313;48.518;9.124;2023-02-26T00:18:53;-0.20;99.90
31735;DHT22;18313;48.518;9.124;2023-02-26T00:21:22;-0.20;99.90
31735;DHT22;18313;48.518;9.124;2023-02-26T00:23:50;-0.10;99.90
31735;DHT22;18313;48.518;9.124;2023-02-26T00:26:18;-0.20;99.90
31735;DHT22;18313;48.518;9.124;2023-02-26T00:28:45;-0.20;99.90
31735;DHT22;18313;48.518;9.124;2023-02-26T00:31:16;-0.20;99.90
31735;DHT22;18313;48.518;9.124;2023-02-26T00:33:44;-0.20;99.90
31735;DHT22;18313;48.518;9.124;2023-02-26T00:39:05;-0.10;99.90
31735;DHT22;18313;48.518;9.124;2023-02-26T00:41:33;-0.10;99.90
31735;DHT22;18313;48.518;9.124;2023-02-26T00:44:02;0.00;99.90
31735;DHT22;18313;48.518;9.124;2023-02-26T00:47:00;-0.10;99.90
31735;DHT22;18313;48.518;9.124;2023-02-26T00:52:38;-0.10;99.90
31735;DHT22;18313;48.518;9.124;2023-02-26T00:55:08;-0.10;99.90
31735;DHT22;18313;48.518;9.124;2023-02-26T00:57:35;-0.10;99.90
31735;DHT22;18313;48.518;9.124;2023-02-26T01:00:04;-0.10;99.90
31735;DHT22;18313;48.518;9.124;2023-02-26T01:02:35;-0.10;99.90
31735;DHT22;18313;48.518;9.124;2023-02-26T01:05:03;-0.10;99.90
31735;DHT22;18313;48.518;9.124;2023-02-26T01:07:37;-0.20;99.90
31735;DHT22;18313;48.518;9.124;2023-02-26T01:10:07;-0.10;99.90
31735;DHT22;18313;48.518;9.124;2023-02-26T01:12:34;-0.20;99.90
31735;DHT22;18313;48.518;9.124;2023-02-26T01:15:03;-0.20;99.90
31735;DHT22;18313;48.518;9.124;2023-02-26T01:20:24;-0.10;99.90
31735;DHT22;18313;48.518;9.124;2023-02-26T01:23:13;-0.10;99.90
31735;DHT22;18313;48.518;9.124;2023-02-26T01:25:57;-0.10;99.90
31735;DHT22;18313;48.518;9.124;2023-02-26T01:28:25;0.00;99.90
31735;DHT22;18313;48.518;9.124;2023-02-26T01:30:56;0.00;99.90
31735;DHT22;18313;48.518;9.124;2023-02-26T01:36:16;-0.20;99.90
31735;DHT22;18313;48.518;9.124;2023-02-26T01:38:48;-0.20;99.90
31735;DHT22;18313;48.518;9.124;2023-02-26T01:44:20;-0.30;99.90
31735;DHT22;18313;48.518;9.124;2023-02-26T01:49:29;-0.20;99.90
31735;DHT22;18313;48.518;9.124;2023-02-26T01:51:59;-0.20;99.90
31735;DHT22;18313;48.518;9.124;2023-02-26T01:54:32;-0.20;99.90
31735;DHT22;18313;48.518;9.124;2023-02-26T01:59:35;0.00;99.90
31735;DHT22;18313;48.518;9.124;2023-02-26T02:02:05;-0.10;99.90
31735;DHT22;18313;48.518;9.124;2023-02-26T02:04:33;-0.10;99.90
31735;DHT22;18313;48.518;9.124;2023-02-26T02:07:01;-0.10;99.90
31735;DHT22;18313;48.518;9.124;2023-02-26T02:09:29;-0.10;99.90
31735;DHT22;18313;48.518;9.124;2023-02-26T02:18:01;-0.10;99.90
31735;DHT22;18313;48.518;9.124;2023-02-26T02:33:50;-0.30;99.90
31735;DHT22;18313;48.518;9.124;2023-02-26T02:39:32;-0.40;99.90
31735;DHT22;18313;48.518;9.124;2023-02-26T02:42:17;-0.50;99.90
31735;DHT22;18313;48.518;9.124;2023-02-26T02:44:51;-0.60;99.90
31735;DHT22;18313;48.518;9.124;2023-02-26T02:47:21;-0.70;99.90
31735;DHT22;18313;48.518;9.124;2023-02-26T02:49:56;-0.70;99.90
31735;DHT22;18313;48.518;9.124;2023-02-26T02:52:40;-0.60;99.90
31735;DHT22;18313;48.518;9.124;2023-02-26T02:55:23;-0.70;99.90
31735;DHT22;18313;48.518;9.124;2023-02-26T02:57:59;-0.70;99.90
31735;DHT22;18313;48.518;9.124;2023-02-26T03:00:32;-0.70;99.90
31735;DHT22;18313;48.518;9.124;2023-02-26T03:03:15;-0.70;99.90
31735;DHT22;18313;48.518;9.124;2023-02-26T03:05:45;-0.70;99.90
31735;DHT22;18313;48.518;9.124;2023-02-26T03:08:15;-0.80;99.90
31735;DHT22;18313;48.518;9.124;2023-02-26T03:10:43;-0.80;99.90
31735;DHT22;18313;48.518;9.124;2023-02-26T03:13:16;-0.80;99.90
31735;DHT22;18313;48.518;9.124;2023-02-26T03:21:37;-1.00;99.90
31735;DHT22;18313;48.518;9.124;2023-02-26T03:26:46;-1.10;99.90
31735;DHT22;18313;48.518;9.124;2023-02-26T03:29:41;-1.20;99.90
31735;DHT22;18313;48.518;9.124;2023-02-26T03:32:17;-1.10;99.90
31735;DHT22;18313;48.518;9.124;2023-02-26T03:34:49;-1.10;99.90
31735;DHT22;18313;48.518;9.124;2023-02-26T03:37:31;-1.20;99.90
31735;DHT22;18313;48.518;9.124;2023-02-26T03:40:05;-1.30;99.90
31735;DHT22;18313;48.518;9.124;2023-02-26T03:42:50;-1.30;99.90
31735;DHT22;18313;48.518;9.124;2023-02-26T03:45:25;-1.30;99.90
31735;DHT22;18313;48.518;9.124;2023-02-26T03:47:55;-1.30;99.90
31735;DHT22;18313;48.518;9.124;2023-02-26T03:50:31;-1.40;99.90
31735;DHT22;18313;48.518;9.124;2023-02-26T03:53:01;-1.40;99.90
31735;DHT22;18313;48.518;9.124;2023-02-26T03:55:34;-1.30;99.90
31735;DHT22;18313;48.518;9.124;2023-02-26T03:58:02;-1.40;99.90
31735;DHT22;18313;48.518;9.124;2023-02-26T04:00:32;-1.40;99.90
31735;DHT22;18313;48.518;9.124;2023-02-26T04:03:07;-1.40;99.90
31735;DHT22;18313;48.518;9.124;2023-02-26T04:05:38;-1.50;99.90
31735;DHT22;18313;48.518;9.124;2023-02-26T04:08:06;-1.50;99.90
31735;DHT22;18313;48.518;9.124;2023-02-26T04:10:52;-1.50;99.90
31735;DHT22;18313;48.518;9.124;2023-02-26T04:13:21;-1.50;99.90
31735;DHT22;18313;48.518;9.124;2023-02-26T04:15:48;-1.60;99.90
31735;DHT22;18313;48.518;9.124;2023-02-26T04:18:15;-1.50;99.90
31735;DHT22;18313;48.518;9.124;2023-02-26T04:20:43;-1.50;99.90
31735;DHT22;18313;48.518;9.124;2023-02-26T04:23:10;-1.50;99.90
31735;DHT22;18313;48.518;9.124;2023-02-26T04:25:37;-1.50;99.90
31735;DHT22;18313;48.518;9.124;2023-02-26T04:28:04;-1.60;99.90
31735;DHT22;18313;48.518;9.124;2023-02-26T04:30:31;-1.60;99.90
31735;DHT22;18313;48.518;9.124;2023-02-26T04:32:59;-1.60;99.90
31735;DHT22;18313;48.518;9.124;2023-02-26T04:35:26;-1.60;99.90
31735;DHT22;18313;48.518;9.124;2023-02-26T04:37:53;-1.70;99.90
31735;DHT22;18313;48.518;9.124;2023-02-26T04:40:20;-1.70;99.90
31735;DHT22;18313;48.518;9.124;2023-02-26T04:42:50;-1.60;99.90
31735;DHT22;18313;48.518;9.124;2023-02-26T04:45:17;-1.80;99.90
31735;DHT22;18313;48.518;9.124;2023-02-26T04:47:44;-1.70;99.90
31735;DHT22;18313;48.518;9.124;2023-02-26T04:50:11;-1.70;99.90
31735;DHT22;18313;48.518;9.124;2023-02-26T04:52:39;-1.70;99.90
31735;DHT22;18313;48.518;9.124;2023-02-26T04:55:07;-1.70;99.90
31735;DHT22;18313;48.518;9.124;2023-02-26T04:57:34;-1.70;99.90
31735;DHT22;18313;48.518;9.124;2023-02-26T05:00:01;-1.80;99.90
31735;DHT22;18313;48.518;9.124;2023-02-26T05:02:32;-1.80;99.90
31735;DHT22;18313;48.518;9.124;2023-02-26T05:05:00;-1.70;99.90
31735;DHT22;18313;48.518;9.124;2023-02-26T05:07:28;-1.70;99.90
31735;DHT22;18313;48.518;9.124;2023-02-26T05:09:55;-1.70;99.90
31735;DHT22;18313;48.518;9.124;2023-02-26T05:12:23;-1.60;99.90
31735;DHT22;18313;48.518;9.124;2023-02-26T05:14:50;-1.60;99.90
31735;DHT22;18313;48.518;9.124;2023-02-26T05:17:17;-1.60;99.90
31735;DHT22;18313;48.518;9.124;2023-02-26T05:19:45;-1.60;99.90
31735;DHT22;18313;48.518;9.124;2023-02-26T05:22:11;-1.60;99.90
31735;DHT22;18313;48.518;9.124;2023-02-26T05:24:40;-1.60;99.90
31735;DHT22;18313;48.518;9.124;2023-02-26T05:27:07;-1.60;99.90
31735;DHT22;18313;48.518;9.124;2023-02-26T05:29:34;-1.70;99.90
31735;DHT22;18313;48.518;9.124;2023-02-26T05:32:03;-1.60;99.90
31735;DHT22;18313;48.518;9.124;2023-02-26T05:34:30;-1.60;99.90
31735;DHT22;18313;48.518;9.124;2023-02-26T05:36:57;-1.50;99.90
31735;DHT22;18313;48.518;9.124;2023-02-26T05:39:24;-1.50;99.90
31735;DHT22;18313;48.518;9.124;2023-02-26T05:41:51;-1.50;99.90
31735;DHT22;18313;48.518;9.124;2023-02-26T05:44:21;-1.50;99.90
31735;DHT22;18313;48.518;9.124;2023-02-26T05:46:49;-1.50;99.90
31735;DHT22;18313;48.518;9.124;2023-02-26T05:49:16;-1.40;99.90
31735;DHT22;18313;48.518;9.124;2023-02-26T05:51:44;-1.40;99.90
31735;DHT22;18313;48.518;9.124;2023-02-26T05:54:11;-1.40;99.90
31735;DHT22;18313;48.518;9.124;2023-02-26T05:56:38;-1.50;99.90
31735;DHT22;18313;48.518;9.124;2023-02-26T05:59:05;-1.60;99.90
31735;DHT22;18313;48.518;9.124;2023-02-26T06:01:33;-1.50;99.90
31735;DHT22;18313;48.518;9.124;2023-02-26T06:04:00;-1.50;99.90
31735;DHT22;18313;48.518;9.124;2023-02-26T06:06:27;-1.50;99.90
31735;DHT22;18313;48.518;9.124;2023-02-26T06:08:54;-1.60;99.90
31735;DHT22;18313;48.518;9.124;2023-02-26T06:11:21;-1.50;99.90
31735;DHT22;18313;48.518;9.124;2023-02-26T06:13:48;-1.50;99.90
31735;DHT22;18313;48.518;9.124;2023-02-26T06:16:16;-1.60;99.90
31735;DHT22;18313;48.518;9.124;2023-02-26T06:18:44;-1.50;99.90
31735;DHT22;18313;48.518;9.124;2023-02-26T06:21:11;-1.50;99.90
31735;DHT22;18313;48.518;9.124;2023-02-26T06:23:38;-1.50;99.90
31735;DHT22;18313;48.518;9.124;2023-02-26T06:26:06;-1.50;99.90
31735;DHT22;18313;48.518;9.124;2023-02-26T06:28:33;-1.50;99.90
31735;DHT22;18313;48.518;9.124;2023-02-26T06:31:00;-1.40;99.90
31735;DHT22;18313;48.518;9.124;2023-02-26T06:33:27;-1.40;99.90
31735;DHT22;18313;48.518;9.124;2023-02-26T06:35:55;-1.40;99.90
31735;DHT22;18313;48.518;9.124;2023-02-26T06:38:23;-1.40;99.90
31735;DHT22;18313;48.518;9.124;2023-02-26T06:40:51;-1.40;99.90
31735;DHT22;18313;48.518;9.124;2023-02-26T06:43:18;-1.40;99.90
31735;DHT22;18313;48.518;9.124;2023-02-26T06:45:46;-1.40;99.90
31735;DHT22;18313;48.518;9.124;2023-02-26T06:48:14;-1.50;99.90
31735;DHT22;18313;48.518;9.124;2023-02-26T06:50:41;-1.50;99.90
31735;DHT22;18313;48.518;9.124;2023-02-26T06:53:09;-1.60;99.90
31735;DHT22;18313;48.518;9.124;2023-02-26T06:55:40;-1.70;99.90
31735;DHT22;18313;48.518;9.124;2023-02-26T06:58:07;-1.70;99.90
31735;DHT22;18313;48.518;9.124;2023-02-26T07:00:35;-1.70;99.90
31735;DHT22;18313;48.518;9.124;2023-02-26T07:03:04;-1.70;99.90
31735;DHT22;18313;48.518;9.124;2023-02-26T07:05:31;-1.80;99.90
31735;DHT22;18313;48.518;9.124;2023-02-26T07:07:58;-1.80;99.90
31735;DHT22;18313;48.518;9.124;2023-02-26T07:10:26;-1.80;99.90
31735;DHT22;18313;48.518;9.124;2023-02-26T07:12:53;-1.80;99.90
31735;DHT22;18313;48.518;9.124;2023-02-26T07:15:20;-1.80;99.90
31735;DHT22;18313;48.518;9.124;2023-02-26T07:17:48;-1.80;99.90
31735;DHT22;18313;48.518;9.124;2023-02-26T07:20:15;-1.80;99.90
31735;DHT22;18313;48.518;9.124;2023-02-26T07:22:44;-1.80;99.90
31735;DHT22;18313;48.518;9.124;2023-02-26T07:25:11;-1.70;99.90
31735;DHT22;18313;48.518;9.124;2023-02-26T07:27:39;-1.70;99.90
31735;DHT22;18313;48.518;9.124;2023-02-26T07:30:10;-1.70;99.90
31735;DHT22;18313;48.518;9.124;2023-02-26T07:32:37;-1.60;99.90
31735;DHT22;18313;48.518;9.124;2023-02-26T07:35:04;-1.50;99.90
31735;DHT22;18313;48.518;9.124;2023-02-26T07:37:32;-1.60;99.90
31735;DHT22;18313;48.518;9.124;2023-02-26T07:39:59;-1.60;99.90
31735;DHT22;18313;48.518;9.124;2023-02-26T07:42:26;-1.50;99.90
31735;DHT22;18313;48.518;9.124;2023-02-26T07:44:53;-1.50;99.90
31735;DHT22;18313;48.518;9.124;2023-02-26T07:47:21;-1.50;99.90
31735;DHT22;18313;48.518;9.124;2023-02-26T07:49:48;-1.40;99.90
31735;DHT22;18313;48.518;9.124;2023-02-26T07:52:15;-1.50;99.90
31735;DHT22;18313;48.518;9.124;2023-02-26T07:54:42;-1.50;99.90
31735;DHT22;18313;48.518;9.124;2023-02-26T07:57:09;-1.60;99.90
31735;DHT22;18313;48.518;9.124;2023-02-26T07:59:37;-1.50;99.90
31735;DHT22;18313;48.518;9.124;2023-02-26T08:02:04;-1.40;99.90
31735;DHT22;18313;48.518;9.124;2023-02-26T08:04:32;-1.40;99.90
31735;DHT22;18313;48.518;9.124;2023-02-26T08:07:00;-1.30;99.90
31735;DHT22;18313;48.518;9.124;2023-02-26T08:09:27;-1.20;99.90
31735;DHT22;18313;48.518;9.124;2023-02-26T08:11:55;-1.20;99.90
31735;DHT22;18313;48.518;9.124;2023-02-26T08:14:22;-1.30;99.90
31735;DHT22;18313;48.518;9.124;2023-02-26T08:16:49;-1.40;99.90
31735;DHT22;18313;48.518;9.124;2023-02-26T08:19:18;-1.30;99.90
31735;DHT22;18313;48.518;9.124;2023-02-26T08:21:46;-1.40;99.90
31735;DHT22;18313;48.518;9.124;2023-02-26T08:24:14;-1.40;99.90
31735;DHT22;18313;48.518;9.124;2023-02-26T08:26:41;-1.50;99.90
31735;DHT22;18313;48.518;9.124;2023-02-26T08:29:09;-1.60;99.90
31735;DHT22;18313;48.518;9.124;2023-02-26T08:31:36;-1.60;99.90
31735;DHT22;18313;48.518;9.124;2023-02-26T08:34:04;-1.70;99.90
31735;DHT22;18313;48.518;9.124;2023-02-26T08:36:31;-1.80;99.90
31735;DHT22;18313;48.518;9.124;2023-02-26T08:38:58;-1.80;99.90
31735;DHT22;18313;48.518;9.124;2023-02-26T08:41:26;-1.80;99.90
31735;DHT22;18313;48.518;9.124;2023-02-26T08:43:55;-1.80;99.90
31735;DHT22;18313;48.518;9.124;2023-02-26T08:46:23;-1.70;99.90
31735;DHT22;18313;48.518;9.124;2023-02-26T08:48:51;-1.60;99.90
31735;DHT22;18313;48.518;9.124;2023-02-26T08:51:20;-1.50;99.90
31735;DHT22;18313;48.518;9.124;2023-02-26T08:53:47;-1.50;99.90
31735;DHT22;18313;48.518;9.124;2023-02-26T08:56:16;-1.40;99.90
31735;DHT22;18313;48.518;9.124;2023-02-26T08:58:44;-1.40;99.90
31735;DHT22;18313;48.518;9.124;2023-02-26T09:01:11;-1.40;99.90
31735;DHT22;18313;48.518;9.124;2023-02-26T09:03:38;-1.40;99.90
31735;DHT22;18313;48.518;9.124;2023-02-26T09:06:05;-1.30;99.90
31735;DHT22;18313;48.518;9.124;2023-02-26T09:08:33;-1.40;99.90
31735;DHT22;18313;48.518;9.124;2023-02-26T09:11:01;-1.40;99.90
31735;DHT22;18313;48.518;9.124;2023-02-26T09:13:29;-1.50;99.90
31735;DHT22;18313;48.518;9.124;2023-02-26T09:15:56;-1.50;99.90
31735;DHT22;18313;48.518;9.124;2023-02-26T09:18:23;-1.40;99.90
31735;DHT22;18313;48.518;9.124;2023-02-26T09:20:51;-1.30;99.90
31735;DHT22;18313;48.518;9.124;2023-02-26T09:23:18;-1.20;99.90
31735;DHT22;18313;48.518;9.124;2023-02-26T09:25:45;-1.20;99.90
31735;DHT22;18313;48.518;9.124;2023-02-26T09:28:12;-1.10;99.90
31735;DHT22;18313;48.518;9.124;2023-02-26T09:30:40;-0.90;99.90
31735;DHT22;18313;48.518;9.124;2023-02-26T09:33:07;-0.80;99.90
31735;DHT22;18313;48.518;9.124;2023-02-26T09:35:35;-0.80;99.90
31735;DHT22;18313;48.518;9.124;2023-02-26T09:38:02;-0.70;99.90
31735;DHT22;18313;48.518;9.124;2023-02-26T09:43:29;-0.60;99.90
31735;DHT22;18313;48.518;9.124;2023-02-26T09:46:02;-0.60;99.90
31735;DHT22;18313;48.518;9.124;2023-02-26T09:48:31;-0.60;99.90
31735;DHT22;18313;48.518;9.124;2023-02-26T09:50:59;-0.70;99.90
31735;DHT22;18313;48.518;9.124;2023-02-26T09:53:30;-0.60;99.90
31735;DHT22;18313;48.518;9.124;2023-02-26T09:56:02;-0.50;99.90
31735;DHT22;18313;48.518;9.124;2023-02-26T09:58:33;-0.50;99.90
31735;DHT22;18313;48.518;9.124;2023-02-26T10:07:08;-0.60;99.90
31735;DHT22;18313;48.518;9.124;2023-02-26T10:12:53;-0.50;99.90
31735;DHT22;18313;48.518;9.124;2023-02-26T10:15:22;-0.50;99.90
31735;DHT22;18313;48.518;9.124;2023-02-26T10:18:14;-0.30;99.90
31735;DHT22;18313;48.518;9.124;2023-02-26T10:21:10;-0.40;99.90
31735;DHT22;18313;48.518;9.124;2023-02-26T10:26:20;0.10;99.90
31735;DHT22;18313;48.518;9.124;2023-02-26T10:34:50;0.20;99.90
31735;DHT22;18313;48.518;9.124;2023-02-26T10:40:13;0.10;99.90
31735;DHT22;18313;48.518;9.124;2023-02-26T10:50:54;-0.10;99.90
31735;DHT22;18313;48.518;9.124;2023-02-26T10:53:23;-0.20;99.90
31735;DHT22;18313;48.518;9.124;2023-02-26T10:56:02;-0.30;99.90
31735;DHT22;18313;48.518;9.124;2023-02-26T10:58:31;-0.20;99.90
31735;DHT22;18313;48.518;9.124;2023-02-26T11:00:58;-0.30;99.90
31735;DHT22;18313;48.518;9.124;2023-02-26T11:03:29;-0.30;99.90
31735;DHT22;18313;48.518;9.124;2023-02-26T11:05:58;-0.20;99.90
31735;DHT22;18313;48.518;9.124;2023-02-26T11:08:31;-0.20;99.90
31735;DHT22;18313;48.518;9.124;2023-02-26T11:11:01;-0.30;99.90
31735;DHT22;18313;48.518;9.124;2023-02-26T11:13:31;-0.30;99.90
31735;DHT22;18313;48.518;9.124;2023-02-26T11:16:05;-0.40;99.90
31735;DHT22;18313;48.518;9.124;2023-02-26T11:18:48;-0.40;99.90
31735;DHT22;18313;48.518;9.124;2023-02-26T11:21:19;-0.40;99.90
31735;DHT22;18313;48.518;9.124;2023-02-26T11:23:50;-0.40;99.90
31735;DHT22;18313;48.518;9.124;2023-02-26T11:26:19;-0.40;99.90
31735;DHT22;18313;48.518;9.124;2023-02-26T11:28:53;-0.30;99.90
31735;DHT22;18313;48.518;9.124;2023-02-26T11:31:23;-0.20;99.90
31735;DHT22;18313;48.518;9.124;2023-02-26T11:33:53;-0.10;99.90
31735;DHT22;18313;48.518;9.124;2023-02-26T11:36:28;0.00;99.90
31735;DHT22;18313;48.518;9.124;2023-02-26T11:41:37;0.00;99.90
31735;DHT22;18313;48.518;9.124;2023-02-26T11:44:10;0.20;99.90
31735;DHT22;18313;48.518;9.124;2023-02-26T11:46:49;0.20;99.90
31735;DHT22;18313;48.518;9.124;2023-02-26T11:49:22;0.10;99.90
31735;DHT22;18313;48.518;9.124;2023-02-26T11:54:37;0.10;99.90
31735;DHT22;18313;48.518;9.124;2023-02-26T11:57:11;0.10;99.90
31735;DHT22;18313;48.518;9.124;2023-02-26T11:59:47;0.10;99.90
31735;DHT22;18313;48.518;9.124;2023-02-26T12:02:19;0.00;99.90
31735;DHT22;18313;48.518;9.124;2023-02-26T12:04:50;0.10;99.90
31735;DHT22;18313;48.518;9.124;2023-02-26T12:07:20;0.10;99.90
31735;DHT22;18313;48.518;9.124;2023-02-26T12:09:48;0.20;99.90
31735;DHT22;18313;48.518;9.124;2023-02-26T12:12:36;0.20;99.90
31735;DHT22;18313;48.518;9.124;2023-02-26T12:15:30;0.20;99.90
31735;DHT22;18313;48.518;9.124;2023-02-26T12:26:23;0.50;99.90
31735;DHT22;18313;48.518;9.124;2023-02-26T12:32:00;0.40;99.90
31735;DHT22;18313;48.518;9.124;2023-02-26T12:45:50;0.50;99.90
31735;DHT22;18313;48.518;9.124;2023-02-26T13:07:49;0.50;99.90
31735;DHT22;18313;48.518;9.124;2023-02-26T13:10:28;0.70;99.90
31735;DHT22;18313;48.518;9.124;2023-02-26T13:16:18;1.10;99.90
31735;DHT22;18313;48.518;9.124;2023-02-26T13:21:32;1.10;99.90
31735;DHT22;18313;48.518;9.124;2023-02-26T13:24:21;1.00;99.90
31735;DHT22;18313;48.518;9.124;2023-02-26T13:26:52;1.00;99.90
31735;DHT22;18313;48.518;9.124;2023-02-26T13:29:27;0.90;99.90
31735;DHT22;18313;48.518;9.124;2023-02-26T13:32:03;0.60;99.90
31735;DHT22;18313;48.518;9.124;2023-02-26T13:34:40;0.50;99.90
31735;DHT22;18313;48.518;9.124;2023-02-26T13:37:25;0.60;99.90
31735;DHT22;18313;48.518;9.124;2023-02-26T13:39:59;0.70;99.90
31735;DHT22;18313;48.518;9.124;2023-02-26T13:42:48;0.80;99.90
31735;DHT22;18313;48.518;9.124;2023-02-26T13:45:49;1.00;99.90
31735;DHT22;18313;48.518;9.124;2023-02-26T13:51:28;1.00;99.90
31735;DHT22;18313;48.518;9.124;2023-02-26T13:54:41;1.10;99.90
31735;DHT22;18313;48.518;9.124;2023-02-26T13:57:24;1.20;99.90
31735;DHT22;18313;48.518;9.124;2023-02-26T14:02:54;1.10;99.90
31735;DHT22;18313;48.518;9.124;2023-02-26T14:11:32;1.00;99.90
31735;DHT22;18313;48.518;9.124;2023-02-26T14:14:18;1.00;99.90
31735;DHT22;18313;48.518;9.124;2023-02-26T14:19:39;0.80;99.90
31735;DHT22;18313;48.518;9.124;2023-02-26T14:25:18;1.00;99.90
31735;DHT22;18313;48.518;9.124;2023-02-26T14:27:47;1.00;99.90
31735;DHT22;18313;48.518;9.124;2023-02-26T14:30:27;1.00;99.90
31735;DHT22;18313;48.518;9.124;2023-02-26T14:35:35;1.20;99.90
31735;DHT22;18313;48.518;9.124;2023-02-26T14:38:10;1.30;99.90
31735;DHT22;18313;48.518;9.124;2023-02-26T14:40:43;1.30;99.90
31735;DHT22;18313;48.518;9.124;2023-02-26T14:43:19;1.20;99.90
31735;DHT22;18313;48.518;9.124;2023-02-26T14:45:49;1.30;99.90
31735;DHT22;18313;48.518;9.124;2023-02-26T14:48:17;1.30;99.90
31735;DHT22;18313;48.518;9.124;2023-02-26T14:54:00;1.40;99.90
31735;DHT22;18313;48.518;9.124;2023-02-26T14:56:51;1.40;99.90
31735;DHT22;18313;48.518;9.124;2023-02-26T15:13:38;1.30;99.90
31735;DHT22;18313;48.518;9.124;2023-02-26T15:16:32;1.20;99.90
31735;DHT22;18313;48.518;9.124;2023-02-26T15:19:13;1.30;99.90
31735;DHT22;18313;48.518;9.124;2023-02-26T15:24:35;1.80;99.90
31735;DHT22;18313;48.518;9.124;2023-02-26T15:27:04;2.00;99.90
31735;DHT22;18313;48.518;9.124;2023-02-26T15:29:37;1.90;99.90
31735;DHT22;18313;48.518;9.124;2023-02-26T15:32:22;1.90;99.90
31735;DHT22;18313;48.518;9.124;2023-02-26T15:34:57;1.80;99.90
31735;DHT22;18313;48.518;9.124;2023-02-26T15:37:28;1.60;99.90
31735;DHT22;18313;48.518;9.124;2023-02-26T15:40:05;1.50;99.90
31735;DHT22;18313;48.518;9.124;2023-02-26T15:42:36;1.50;99.90
31735;DHT22;18313;48.518;9.124;2023-02-26T15:45:14;1.50;99.90
31735;DHT22;18313;48.518;9.124;2023-02-26T15:47:43;1.50;99.90
31735;DHT22;18313;48.518;9.124;2023-02-26T15:50:14;1.60;99.90
31735;DHT22;18313;48.518;9.124;2023-02-26T15:52:43;1.50;99.90
31735;DHT22;18313;48.518;9.124;2023-02-26T15:55:15;1.60;99.90
31735;DHT22;18313;48.518;9.124;2023-02-26T15:57:43;1.50;99.90
31735;DHT22;18313;48.518;9.124;2023-02-26T16:00:19;1.30;99.90
31735;DHT22;18313;48.518;9.124;2023-02-26T16:02:55;1.30;99.90
31735;DHT22;18313;48.518;9.124;2023-02-26T16:05:27;1.30;99.90
31735;DHT22;18313;48.518;9.124;2023-02-26T16:07:55;1.20;99.90
31735;DHT22;18313;48.518;9.124;2023-02-26T16:10:35;1.10;99.90
31735;DHT22;18313;48.518;9.124;2023-02-26T16:13:06;1.00;99.90
31735;DHT22;18313;48.518;9.124;2023-02-26T16:15:37;1.00;99.90
31735;DHT22;18313;48.518;9.124;2023-02-26T16:18:10;0.90;99.90
31735;DHT22;18313;48.518;9.124;2023-02-26T16:20:48;1.00;99.90
31735;DHT22;18313;48.518;9.124;2023-02-26T16:23:21;1.10;99.90
31735;DHT22;18313;48.518;9.124;2023-02-26T16:25:55;1.10;99.90
31735;DHT22;18313;48.518;9.124;2023-02-26T16:28:32;1.10;99.90
31735;DHT22;18313;48.518;9.124;2023-02-26T16:31:03;1.10;99.90
31735;DHT22;18313;48.518;9.124;2023-02-26T16:33:33;1.00;99.90
31735;DHT22;18313;48.518;9.124;2023-02-26T16:36:13;0.90;99.90
31735;DHT22;18313;48.518;9.124;2023-02-26T16:38:45;0.80;99.90
31735;DHT22;18313;48.518;9.124;2023-02-26T16:41:13;0.80;99.90
31735;DHT22;18313;48.518;9.124;2023-02-26T16:43:49;0.80;99.90
31735;DHT22;18313;48.518;9.124;2023-02-26T16:46:38;0.70;99.90
31735;DHT22;18313;48.518;9.124;2023-02-26T16:49:21;0.70;99.90
31735;DHT22;18313;48.518;9.124;2023-02-26T16:51:50;0.70;99.90
31735;DHT22;18313;48.518;9.124;2023-02-26T16:54:28;0.60;99.90
31735;DHT22;18313;48.518;9.124;2023-02-26T16:57:03;0.60;99.90
31735;DHT22;18313;48.518;9.124;2023-02-26T16:59:39;0.70;99.90
31735;DHT22;18313;48.518;9.124;2023-02-26T17:02:13;0.70;99.90
31735;DHT22;18313;48.518;9.124;2023-02-26T17:04:42;0.70;99.90
31735;DHT22;18313;48.518;9.124;2023-02-26T17:07:26;0.80;99.90
31735;DHT22;18313;48.518;9.124;2023-02-26T17:10:01;0.80;99.90
31735;DHT22;18313;48.518;9.124;2023-02-26T17:12:48;0.80;99.90
31735;DHT22;18313;48.518;9.124;2023-02-26T17:15:28;0.70;99.90
31735;DHT22;18313;48.518;9.124;2023-02-26T17:17:56;0.70;99.90
31735;DHT22;18313;48.518;9.124;2023-02-26T17:20:25;0.80;99.90
31735;DHT22;18313;48.518;9.124;2023-02-26T17:22:54;0.70;99.90
31735;DHT22;18313;48.518;9.124;2023-02-26T17:25:22;0.70;99.90
31735;DHT22;18313;48.518;9.124;2023-02-26T17:27:52;0.80;99.90
31735;DHT22;18313;48.518;9.124;2023-02-26T17:30:22;0.70;99.90
31735;DHT22;18313;48.518;9.124;2023-02-26T17:32:55;0.70;99.90
31735;DHT22;18313;48.518;9.124;2023-02-26T17:35:23;0.70;99.90
31735;DHT22;18313;48.518;9.124;2023-02-26T17:37:51;0.70;99.90
31735;DHT22;18313;48.518;9.124;2023-02-26T17:40:25;0.60;99.90
31735;DHT22;18313;48.518;9.124;2023-02-26T17:42:53;0.60;99.90
31735;DHT22;18313;48.518;9.124;2023-02-26T17:45:20;0.60;99.90
31735;DHT22;18313;48.518;9.124;2023-02-26T17:47:47;0.60;99.90
31735;DHT22;18313;48.518;9.124;2023-02-26T17:50:37;0.60;99.90
31735;DHT22;18313;48.518;9.124;2023-02-26T17:53:06;0.60;99.90
31735;DHT22;18313;48.518;9.124;2023-02-26T17:55:35;0.60;99.90
31735;DHT22;18313;48.518;9.124;2023-02-26T17:58:06;0.60;99.90
31735;DHT22;18313;48.518;9.124;2023-02-26T18:00:33;0.60;99.90
31735;DHT22;18313;48.518;9.124;2023-02-26T18:03:10;0.60;99.90
31735;DHT22;18313;48.518;9.124;2023-02-26T18:05:38;0.60;99.90
31735;DHT22;18313;48.518;9.124;2023-02-26T18:08:18;0.60;99.90
31735;DHT22;18313;48.518;9.124;2023-02-26T18:10:46;0.50;99.90
31735;DHT22;18313;48.518;9.124;2023-02-26T18:13:14;0.50;99.90
31735;DHT22;18313;48.518;9.124;2023-02-26T18:15:41;0.50;99.90
31735;DHT22;18313;48.518;9.124;2023-02-26T18:18:11;0.50;99.90
31735;DHT22;18313;48.518;9.124;2023-02-26T18:20:39;0.40;99.90
31735;DHT22;18313;48.518;9.124;2023-02-26T18:23:06;0.40;99.90
31735;DHT22;18313;48.518;9.124;2023-02-26T18:25:34;0.50;99.90
31735;DHT22;18313;48.518;9.124;2023-02-26T18:28:03;0.50;99.90
31735;DHT22;18313;48.518;9.124;2023-02-26T18:30:33;0.50;99.90
31735;DHT22;18313;48.518;9.124;2023-02-26T18:33:02;0.50;99.90
31735;DHT22;18313;48.518;9.124;2023-02-26T18:35:30;0.40;99.90
31735;DHT22;18313;48.518;9.124;2023-02-26T18:37:58;0.40;99.90
31735;DHT22;18313;48.518;9.124;2023-02-26T18:40:26;0.40;99.90
31735;DHT22;18313;48.518;9.124;2023-02-26T18:42:54;0.40;99.90
31735;DHT22;18313;48.518;9.124;2023-02-26T18:45:21;0.30;99.90
31735;DHT22;18313;48.518;9.124;2023-02-26T18:47:49;0.30;99.90
31735;DHT22;18313;48.518;9.124;2023-02-26T18:50:17;0.30;99.90
31735;DHT22;18313;48.518;9.124;2023-02-26T18:52:44;0.30;99.90
31735;DHT22;18313;48.518;9.124;2023-02-26T18:55:12;0.30;99.90
31735;DHT22;18313;48.518;9.124;2023-02-26T18:57:41;0.30;99.90
31735;DHT22;18313;48.518;9.124;2023-02-26T19:00:11;0.20;99.90
31735;DHT22;18313;48.518;9.124;2023-02-26T19:02:43;0.10;99.90